Time;durP1;ratioP1;P1;durP2;ratioP2;P2;SDS_P1;SDS_P2;PMS_P1;PMS_P2;Temp;Humidity;BMP_temperature;BMP_pressure;BME280_temperature;BME280_humidity;BME280_pressure;Samples;Min_cycle;Max_cycle;Signal;HPM_P1;HPM_P2
2024/04/23 00:01:29;;;;;;;;;;;;;;;19.92;43.91;101303.12;103181;1291;62241;-80
2024/04/23 00:03:55;;;;;;;;;;;;;;;19.92;43.90;101300.30;103157;1285;63373;-81
2024/04/23 00:06:20;;;;;;;;;;;;;;;19.92;43.68;101301.77;103161;1285;62217;-79
2024/04/23 00:08:46;;;;;;;;;;;;;;;19.92;43.69;101307.63;103221;1286;76259;-79
2024/04/23 00:11:11;;;;;;;;;;;;;;;19.92;43.75;101301.92;103160;1286;62250;-80
2024/04/23 00:13:37;;;;;;;;;;;;;;;19.92;43.78;101307.27;103240;1291;62513;-79
2024/04/23 00:16:03;;;;;;;;;;;;;;;19.92;43.90;101304.07;103184;1286;62376;-80
2024/04/23 00:18:28;;;;;;;;;;;;;;;19.92;43.72;101302.46;103176;1286;62261;-80
2024/04/23 00:20:55;;;;;;;;;;;;;;;19.91;43.85;101301.77;103291;1285;62508;-80
2024/04/23 00:23:21;;;;;;;;;;;;;;;19.91;43.78;101310.70;103194;1286;62242;-79
2024/04/23 00:25:47;;;;;;;;;;;;;;;19.91;43.74;101305.17;103178;1285;62400;-80
2024/04/23 00:28:13;;;;;;;;;;;;;;;19.91;43.83;101291.59;103140;1286;62258;-79
2024/04/23 00:30:39;;;;;;;;;;;;;;;19.91;43.73;101287.83;103183;1286;62191;-79
2024/04/23 00:33:06;;;;;;;;;;;;;;;19.91;43.69;101283.76;103145;1290;63226;-81
2024/04/23 00:35:34;;;;;;;;;;;;;;;19.90;43.85;101288.97;103191;1286;62187;-80
2024/04/23 00:38:00;;;;;;;;;;;;;;;19.91;43.75;101295.20;103160;1291;62238;-79
2024/04/23 00:40:31;;;;;;;;;;;;;;;19.90;43.76;101295.20;103172;1287;62225;-81
2024/04/23 00:42:57;;;;;;;;;;;;;;;19.90;43.73;101283.77;103161;1286;62182;-80
2024/04/23 00:45:28;;;;;;;;;;;;;;;19.90;43.84;101272.88;103218;1286;62206;-80
2024/04/23 00:47:53;;;;;;;;;;;;;;;19.90;43.77;101271.80;103185;1290;72484;-80
2024/04/23 00:50:21;;;;;;;;;;;;;;;19.90;43.71;101281.27;103192;1290;62226;-79
2024/04/23 00:52:46;;;;;;;;;;;;;;;19.90;43.73;101281.81;103171;1289;63319;-81
2024/04/23 00:55:12;;;;;;;;;;;;;;;19.90;43.73;101281.83;103133;1286;62561;-79
2024/04/23 00:57:39;;;;;;;;;;;;;;;19.90;43.77;101283.44;103244;1286;62204;-79
2024/04/23 01:00:05;;;;;;;;;;;;;;;19.89;43.87;101283.67;103321;1286;62191;-79
2024/04/23 01:02:31;;;;;;;;;;;;;;;19.90;43.75;101284.52;103224;1286;62267;-79
2024/04/23 01:04:56;;;;;;;;;;;;;;;19.89;43.75;101283.52;103172;1287;62255;-80
2024/04/23 01:07:22;;;;;;;;;;;;;;;19.90;43.91;101285.59;103182;1286;62114;-80
2024/04/23 01:09:51;;;;;;;;;;;;;;;19.89;43.73;101284.71;103154;1291;62108;-81
2024/04/23 01:12:16;;;;;;;;;;;;;;;19.89;43.74;101280.80;103150;1285;62193;-79
2024/04/23 01:14:42;;;;;;;;;;;;;;;19.89;43.69;101275.28;103162;1286;62201;-80
2024/04/23 01:17:08;;;;;;;;;;;;;;;19.89;43.71;101275.98;103252;1289;62583;-81
2024/04/23 01:19:35;;;;;;;;;;;;;;;19.89;43.82;101276.00;103114;1288;72487;-80
2024/04/23 01:22:05;;;;;;;;;;;;;;;19.89;43.67;101281.02;102796;1286;73984;-80
2024/04/23 01:24:32;;;;;;;;;;;;;;;19.88;43.61;101287.65;103084;1285;62533;-79
2024/04/23 01:26:58;;;;;;;;;;;;;;;19.88;43.89;101286.95;103146;1286;62853;-79
2024/04/23 01:29:23;;;;;;;;;;;;;;;19.88;43.79;101282.45;103212;1286;63301;-79
2024/04/23 01:31:49;;;;;;;;;;;;;;;19.88;43.63;101278.20;103166;1290;62175;-82
2024/04/23 01:34:15;;;;;;;;;;;;;;;19.88;43.74;101266.91;103171;1286;62395;-81
2024/04/23 01:36:41;;;;;;;;;;;;;;;19.88;43.69;101263.20;103172;1286;62123;-80
2024/04/23 01:39:07;;;;;;;;;;;;;;;19.88;43.76;101268.04;103215;1291;63382;-80
2024/04/23 01:41:32;;;;;;;;;;;;;;;19.88;43.78;101269.98;103224;1285;72269;-80
2024/04/23 01:43:58;;;;;;;;;;;;;;;19.88;43.66;101272.68;103162;1292;62161;-80
2024/04/23 01:46:24;;;;;;;;;;;;;;;19.88;43.77;101280.55;103294;1286;62191;-81
2024/04/23 01:48:49;;;;;;;;;;;;;;;19.88;43.65;101283.56;103202;1285;63268;-80
2024/04/23 01:51:16;;;;;;;;;;;;;;;19.87;43.73;101276.45;103187;1285;62216;-80
2024/04/23 01:53:41;;;;;;;;;;;;;;;19.87;43.80;101284.50;103190;1289;62164;-78
2024/04/23 01:56:07;;;;;;;;;;;;;;;19.87;43.73;101286.10;103192;1285;62140;-81
2024/04/23 01:58:33;;;;;;;;;;;;;;;19.88;43.83;101277.36;103145;1285;62203;-80
2024/04/23 02:00:58;;;;;;;;;;;;;;;19.87;43.73;101270.04;103176;1286;63337;-80
2024/04/23 02:03:24;;;;;;;;;;;;;;;19.87;43.83;101262.90;103158;1291;63390;-79
2024/04/23 02:05:49;;;;;;;;;;;;;;;19.87;43.72;101257.36;103199;1285;62235;-80
2024/04/23 02:08:15;;;;;;;;;;;;;;;19.86;43.77;101264.73;103244;1286;62299;-80
2024/04/23 02:10:41;;;;;;;;;;;;;;;19.86;43.68;101270.27;103220;1286;62204;-79
2024/04/23 02:13:07;;;;;;;;;;;;;;;19.86;43.80;101268.65;103178;1285;62176;-79
2024/04/23 02:15:33;;;;;;;;;;;;;;;19.87;43.70;101271.49;103199;1286;62181;-79
2024/04/23 02:17:59;;;;;;;;;;;;;;;19.87;43.67;101271.31;103270;1291;62239;-79
2024/04/23 02:20:24;;;;;;;;;;;;;;;19.87;43.66;101270.45;103194;1285;62284;-81
2024/04/23 02:22:50;;;;;;;;;;;;;;;19.86;43.61;101259.73;103216;1289;63338;-80
2024/04/23 02:25:17;;;;;;;;;;;;;;;19.86;43.72;101262.98;102746;1286;679824;-80
2024/04/23 02:27:42;;;;;;;;;;;;;;;19.86;43.62;101269.39;103234;1291;72437;-79
2024/04/23 02:30:08;;;;;;;;;;;;;;;19.86;43.70;101272.58;103195;1286;62214;-80
2024/04/23 02:32:34;;;;;;;;;;;;;;;19.86;43.71;101264.77;103260;1291;63359;-79
2024/04/23 02:34:59;;;;;;;;;;;;;;;19.86;43.74;101269.23;103245;1286;62609;-79
2024/04/23 02:37:25;;;;;;;;;;;;;;;19.86;43.68;101268.00;103252;1291;62223;-79
2024/04/23 02:39:50;;;;;;;;;;;;;;;19.85;43.80;101267.66;103191;1285;72633;-80
2024/04/23 02:42:16;;;;;;;;;;;;;;;19.85;43.66;101267.10;103239;1286;62213;-79
2024/04/23 02:44:42;;;;;;;;;;;;;;;19.85;43.74;101263.73;103261;1285;62434;-80
2024/04/23 02:47:08;;;;;;;;;;;;;;;19.85;43.71;101271.76;103176;1291;62178;-82
2024/04/23 02:49:33;;;;;;;;;;;;;;;19.85;43.82;101268.38;103223;1286;62277;-79
2024/04/23 02:51:59;;;;;;;;;;;;;;;19.84;43.60;101274.66;103277;1287;62300;-81
2024/04/23 02:54:25;;;;;;;;;;;;;;;19.85;43.69;101273.56;103206;1286;75271;-80
2024/04/23 02:56:51;;;;;;;;;;;;;;;19.85;43.74;101272.85;103192;1289;62209;-79
2024/04/23 02:59:18;;;;;;;;;;;;;;;19.85;43.76;101272.69;103248;1286;62462;-79
2024/04/23 03:01:43;;;;;;;;;;;;;;;19.85;43.62;101269.65;103221;1288;62245;-79
2024/04/23 03:04:09;;;;;;;;;;;;;;;19.84;43.71;101268.61;103202;1286;62127;-80
2024/04/23 03:06:35;;;;;;;;;;;;;;;19.85;43.84;101271.61;103195;1291;62213;-80
2024/04/23 03:09:00;;;;;;;;;;;;;;;19.84;43.83;101273.24;103199;1285;62444;-80
2024/04/23 03:11:26;;;;;;;;;;;;;;;19.84;43.76;101276.64;103300;1286;62150;-79
2024/04/23 03:13:51;;;;;;;;;;;;;;;19.84;43.69;101271.84;103190;1291;62211;-80
2024/04/23 03:16:17;;;;;;;;;;;;;;;19.84;43.78;101265.56;103291;1286;62309;-81
2024/04/23 03:18:42;;;;;;;;;;;;;;;19.84;43.67;101270.40;103166;1286;63313;-80
2024/04/23 03:21:08;;;;;;;;;;;;;;;19.84;43.65;101267.73;103228;1285;62235;-81
2024/04/23 03:23:34;;;;;;;;;;;;;;;19.84;43.86;101269.36;103183;1286;62194;-80
2024/04/23 03:25:59;;;;;;;;;;;;;;;19.84;43.81;101262.55;103227;1291;62210;-79
2024/04/23 03:28:25;;;;;;;;;;;;;;;19.83;43.81;101251.69;103208;1286;63379;-82
2024/04/23 03:30:50;;;;;;;;;;;;;;;19.83;43.76;101249.70;103208;1291;62512;-80
2024/04/23 03:33:16;;;;;;;;;;;;;;;19.83;43.87;101252.23;103192;1286;62111;-82
2024/04/23 03:35:42;;;;;;;;;;;;;;;19.83;43.79;101259.04;103236;1285;62190;-79
2024/04/23 03:38:07;;;;;;;;;;;;;;;19.84;43.68;101258.99;103144;1286;63357;-80
2024/04/23 03:40:33;;;;;;;;;;;;;;;19.83;43.61;101253.67;103132;1289;63377;-81
2024/04/23 03:42:59;;;;;;;;;;;;;;;19.82;43.60;101245.48;103348;1285;62264;-79
2024/04/23 03:45:25;;;;;;;;;;;;;;;19.82;43.71;101240.00;103260;1285;62184;-79
2024/04/23 03:47:50;;;;;;;;;;;;;;;19.81;43.82;101237.71;103207;1286;62280;-79
2024/04/23 03:50:16;;;;;;;;;;;;;;;19.81;43.83;101245.58;103106;1285;63456;-80
2024/04/23 03:52:41;;;;;;;;;;;;;;;19.80;43.86;101247.92;103215;1286;62275;-79
2024/04/23 03:55:07;;;;;;;;;;;;;;;19.80;43.75;101246.34;103200;1286;62200;-80
2024/04/23 03:57:33;;;;;;;;;;;;;;;19.80;43.79;101242.42;103234;1285;62219;-80
2024/04/23 03:59:58;;;;;;;;;;;;;;;19.79;43.78;101239.56;103256;1286;62284;-81
2024/04/23 04:07:55;;;;;;;;;;;;;;;19.79;43.73;101247.25;103210;1287;63398;-81
2024/04/23 04:10:20;;;;;;;;;;;;;;;19.79;43.57;101246.17;103277;1285;62207;-79
2024/04/23 04:12:49;;;;;;;;;;;;;;;19.79;43.66;101246.20;103307;1291;72552;-81
2024/04/23 04:15:16;;;;;;;;;;;;;;;19.78;43.50;101245.14;103140;1286;63373;-80
2024/04/23 04:17:42;;;;;;;;;;;;;;;19.79;43.64;101252.11;103281;1286;62201;-81
2024/04/23 04:20:08;;;;;;;;;;;;;;;19.78;43.57;101256.61;103175;1289;62159;-81
2024/04/23 04:22:34;;;;;;;;;;;;;;;19.77;43.59;101257.02;103164;1286;62167;-80
2024/04/23 04:24:59;;;;;;;;;;;;;;;19.76;43.61;101260.27;103201;1285;62286;-81
2024/04/23 04:27:25;;;;;;;;;;;;;;;19.75;43.56;101263.15;103351;1286;62204;-82
2024/04/23 04:29:51;;;;;;;;;;;;;;;19.75;43.47;101271.58;103176;1286;63383;-80
2024/04/23 04:32:16;;;;;;;;;;;;;;;19.74;43.31;101271.99;103177;1285;62185;-81
2024/04/23 04:34:42;;;;;;;;;;;;;;;19.74;43.32;101267.38;103293;1286;63401;-80
2024/04/23 04:37:07;;;;;;;;;;;;;;;19.74;43.53;101271.85;103365;1286;63299;-80
2024/04/23 04:39:36;;;;;;;;;;;;;;;19.73;43.41;101274.20;103402;1286;62116;-80
2024/04/23 04:42:02;;;;;;;;;;;;;;;19.73;43.45;101270.08;103394;1286;62290;-80
2024/04/23 04:44:28;;;;;;;;;;;;;;;19.73;43.53;101263.84;103255;1286;62708;-80
2024/04/23 04:46:53;;;;;;;;;;;;;;;19.72;43.43;101254.96;103342;1291;62149;-80
2024/04/23 04:49:22;;;;;;;;;;;;;;;19.70;43.44;101253.99;103322;1286;62197;-80
2024/04/23 04:51:47;;;;;;;;;;;;;;;19.69;43.54;101253.59;103304;1285;63338;-80
2024/04/23 04:54:14;;;;;;;;;;;;;;;19.67;43.36;101255.65;103377;1285;62108;-80
2024/04/23 04:56:40;;;;;;;;;;;;;;;19.65;43.40;101255.05;103622;1285;63472;-81
2024/04/23 04:59:05;;;;;;;;;;;;;;;19.63;43.42;101260.52;103939;1285;62139;-81
2024/04/23 05:01:31;;;;;;;;;;;;;;;19.61;43.51;101261.52;104040;1286;63240;-80
2024/04/23 05:04:03;;;;;;;;;;;;;;;19.59;43.44;101267.36;104103;1288;73272;-80
2024/04/23 05:06:28;;;;;;;;;;;;;;;19.58;43.19;101276.52;103579;1285;74055;-79
2024/04/23 05:08:54;;;;;;;;;;;;;;;19.57;43.51;101287.27;103708;1288;62102;-81
2024/04/23 05:11:20;;;;;;;;;;;;;;;19.55;43.28;101287.21;104125;1285;62467;-81
2024/04/23 05:13:46;;;;;;;;;;;;;;;19.52;43.37;101285.23;103832;1286;62242;-79
2024/04/23 05:16:11;;;;;;;;;;;;;;;19.49;43.33;101270.77;104068;1285;62156;-81
2024/04/23 05:18:37;;;;;;;;;;;;;;;19.48;43.30;101262.61;103758;1286;62200;-81
2024/04/23 05:21:02;;;;;;;;;;;;;;;19.48;43.26;101257.79;103857;1288;62309;-79
2024/04/23 05:23:28;;;;;;;;;;;;;;;19.49;43.31;101261.14;103832;1285;62760;-79
2024/04/23 05:25:55;;;;;;;;;;;;;;;19.50;43.15;101270.17;103771;1286;62167;-79
2024/04/23 05:28:21;;;;;;;;;;;;;;;19.50;43.15;101270.52;104037;1286;62149;-80
2024/04/23 05:33:30;;;;;;;;;;;;;;;19.52;43.24;101271.48;104047;1285;62069;-80
2024/04/23 05:35:56;;;;;;;;;;;;;;;19.52;43.25;101273.61;104029;1291;62493;-80
2024/04/23 05:38:22;;;;;;;;;;;;;;;19.53;43.26;101279.13;103920;1291;62105;-79
2024/04/23 05:40:47;;;;;;;;;;;;;;;19.52;43.25;101280.58;104255;1288;62254;-79
2024/04/23 05:43:13;;;;;;;;;;;;;;;19.52;43.16;101286.13;104270;1285;62143;-80
2024/04/23 05:45:38;;;;;;;;;;;;;;;19.51;43.27;101287.29;104029;1285;64326;-79
2024/04/23 05:48:22;;;;;;;;;;;;;;;19.50;43.28;101286.43;104134;1291;62207;-79
2024/04/23 05:51:07;;;;;;;;;;;;;;;19.44;43.14;101277.46;104110;1286;75302;-79
2024/04/23 05:53:51;;;;;;;;;;;;;;;19.36;43.30;101273.64;104102;1285;62081;-79
2024/04/23 05:56:17;;;;;;;;;;;;;;;19.31;43.28;101272.31;104215;1287;62112;-81
2024/04/23 05:58:43;;;;;;;;;;;;;;;19.25;43.08;101269.95;104194;1288;63365;-80
2024/04/23 06:01:08;;;;;;;;;;;;;;;19.23;43.15;101270.45;104549;1286;62547;-80
2024/04/23 06:03:34;;;;;;;;;;;;;;;19.17;43.27;101268.98;104659;1285;62204;-81
2024/04/23 06:05:59;;;;;;;;;;;;;;;19.16;43.13;101272.10;104688;1286;62114;-77
2024/04/23 06:08:26;;;;;;;;;;;;;;;19.18;43.33;101269.64;104271;1285;62165;-81
2024/04/23 06:10:52;;;;;;;;;;;;;;;19.19;43.40;101261.94;104370;1286;72502;-79
2024/04/23 06:13:18;;;;;;;;;;;;;;;19.20;43.26;101262.96;104352;1286;62197;-81
2024/04/23 06:15:43;;;;;;;;;;;;;;;19.23;43.18;101263.80;104148;1285;62217;-79
2024/04/23 06:18:09;;;;;;;;;;;;;;;19.29;43.33;101275.30;104357;1285;62168;-80
2024/04/23 06:20:35;;;;;;;;;;;;;;;19.32;43.24;101276.59;104799;1285;62203;-78
2024/04/23 06:23:00;;;;;;;;;;;;;;;19.34;43.29;101274.84;104751;1285;73617;-79
2024/04/23 06:25:26;;;;;;;;;;;;;;;19.37;43.27;101278.09;104718;1289;62264;-79
2024/04/23 06:27:51;;;;;;;;;;;;;;;19.38;43.36;101291.36;104622;1288;62379;-79
2024/04/23 06:30:18;;;;;;;;;;;;;;;19.40;43.14;101302.69;104590;1285;62082;-78
2024/04/23 06:32:44;;;;;;;;;;;;;;;19.41;43.14;101310.30;104356;1288;62576;-78
2024/04/23 06:35:09;;;;;;;;;;;;;;;19.43;43.21;101316.29;104482;1285;62167;-79
2024/04/23 06:37:35;;;;;;;;;;;;;;;19.43;43.27;101322.17;104536;1286;62104;-79
2024/04/23 06:40:03;;;;;;;;;;;;;;;19.41;43.21;101328.73;104155;1285;62147;-79
2024/04/23 06:42:29;;;;;;;;;;;;;;;19.40;43.28;101326.42;104453;1285;61970;-79
2024/04/23 06:44:55;;;;;;;;;;;;;;;19.40;43.27;101330.86;104595;1285;62065;-79
2024/04/23 06:47:20;;;;;;;;;;;;;;;19.41;43.42;101330.81;104654;1285;62181;-80
2024/04/23 06:49:46;;;;;;;;;;;;;;;19.40;43.30;101329.45;104428;1285;62164;-80
2024/04/23 06:52:14;;;;;;;;;;;;;;;19.40;43.45;101332.30;104456;1285;62162;-80
2024/04/23 06:54:40;;;;;;;;;;;;;;;19.41;43.36;101335.14;104457;1286;62216;-80
2024/04/23 06:57:06;;;;;;;;;;;;;;;19.41;43.55;101337.48;104632;1288;62526;-79
2024/04/23 06:59:33;;;;;;;;;;;;;;;19.43;43.54;101337.88;104879;1285;62207;-80
2024/04/23 07:01:58;;;;;;;;;;;;;;;19.45;43.65;101334.20;104973;1285;62139;-79
2024/04/23 07:04:24;;;;;;;;;;;;;;;19.46;43.78;101325.77;104351;1288;62225;-80
2024/04/23 07:06:53;;;;;;;;;;;;;;;19.48;43.67;101321.52;104577;1285;62130;-80
2024/04/23 07:09:19;;;;;;;;;;;;;;;19.50;43.61;101317.67;104515;1285;74826;-79
2024/04/23 07:11:45;;;;;;;;;;;;;;;19.50;43.74;101310.33;104587;1293;62185;-79
2024/04/23 07:14:10;;;;;;;;;;;;;;;19.50;43.48;101298.20;104589;1285;62265;-80
2024/04/23 07:16:36;;;;;;;;;;;;;;;19.50;43.57;101298.36;104484;1289;62172;-79
2024/04/23 07:19:01;;;;;;;;;;;;;;;19.51;43.56;101294.96;104517;1288;60799;-80
2024/04/23 07:21:27;;;;;;;;;;;;;;;19.51;43.40;101282.62;104766;1286;62165;-81
2024/04/23 07:23:52;;;;;;;;;;;;;;;19.50;43.50;101280.36;104674;1286;62191;-81
2024/04/23 07:26:18;;;;;;;;;;;;;;;19.46;43.34;101280.97;104928;1285;60067;-80
2024/04/23 07:28:44;;;;;;;;;;;;;;;19.44;43.42;101267.64;104641;1285;62200;-79
2024/04/23 07:31:09;;;;;;;;;;;;;;;19.44;43.63;101258.02;104583;1286;64515;-79
2024/04/23 07:33:35;;;;;;;;;;;;;;;19.46;43.65;101250.80;104988;1286;62101;-79
2024/04/23 07:36:01;;;;;;;;;;;;;;;19.47;43.70;101245.36;104866;1285;60216;-78
2024/04/23 07:38:27;;;;;;;;;;;;;;;19.49;43.64;101230.27;104977;1290;62180;-79
2024/04/23 07:40:52;;;;;;;;;;;;;;;19.50;43.84;101217.89;105026;1285;62185;-79
2024/04/23 07:43:18;;;;;;;;;;;;;;;19.51;43.79;101216.39;105058;1285;62173;-79
2024/04/23 07:45:43;;;;;;;;;;;;;;;19.52;43.82;101216.00;104949;1285;62140;-80
2024/04/23 07:48:09;;;;;;;;;;;;;;;19.52;43.77;101216.14;104969;1285;62191;-79
2024/04/23 07:50:34;;;;;;;;;;;;;;;19.52;43.83;101210.41;104828;1285;62280;-79
2024/04/23 07:53:04;;;;;;;;;;;;;;;19.53;43.78;101208.95;104850;1285;62194;-78
2024/04/23 07:55:29;;;;;;;;;;;;;;;19.45;43.92;101213.31;105225;1285;75359;-79
2024/04/23 07:57:55;;;;;;;;;;;;;;;19.35;44.18;101220.19;105557;1286;60483;-78
2024/04/23 08:00:23;;;;;;;;;;;;;;;19.34;44.28;101227.02;105620;1288;61296;-78
2024/04/23 08:02:51;;;;;;;;;;;;;;;19.28;44.24;101225.73;105280;1285;61972;-78
2024/04/23 08:05:17;;;;;;;;;;;;;;;19.26;44.59;101221.91;104866;1286;74954;-79
2024/04/23 08:07:42;;;;;;;;;;;;;;;19.28;44.53;101217.87;104803;1285;62252;-79
2024/04/23 08:10:10;;;;;;;;;;;;;;;19.32;44.63;101220.90;105114;1285;62089;-80
2024/04/23 08:12:36;;;;;;;;;;;;;;;19.34;44.54;101238.77;105320;1286;61997;-80
2024/04/23 08:15:01;;;;;;;;;;;;;;;19.37;44.52;101236.13;105021;1290;62095;-79
2024/04/23 08:17:27;;;;;;;;;;;;;;;19.36;44.46;101234.71;105040;1285;62175;-79
2024/04/23 08:19:52;;;;;;;;;;;;;;;19.38;44.40;101235.88;104728;1285;62083;-80
2024/04/23 08:22:18;;;;;;;;;;;;;;;19.39;44.31;101241.51;104776;1286;62104;-79
2024/04/23 08:24:43;;;;;;;;;;;;;;;19.41;44.44;101244.27;104603;1288;62192;-79
2024/04/23 08:27:09;;;;;;;;;;;;;;;19.43;44.41;101243.81;104617;1288;62162;-78
2024/04/23 08:29:35;;;;;;;;;;;;;;;19.41;44.27;101241.98;104764;1285;60477;-79
2024/04/23 08:32:00;;;;;;;;;;;;;;;19.40;44.41;101245.94;104495;1285;62165;-79
2024/04/23 08:34:26;;;;;;;;;;;;;;;19.41;44.50;101230.17;104544;1285;62274;-79
2024/04/23 08:36:52;;;;;;;;;;;;;;;19.42;44.29;101224.92;104444;1285;72455;-80
2024/04/23 08:39:17;;;;;;;;;;;;;;;19.44;44.22;101219.13;104311;1285;62192;-80
2024/04/23 08:41:43;;;;;;;;;;;;;;;19.45;44.20;101213.73;104699;1289;60010;-80
2024/04/23 08:44:09;;;;;;;;;;;;;;;19.46;44.26;101200.77;104486;1285;62159;-79
2024/04/23 08:46:36;;;;;;;;;;;;;;;19.47;44.13;101197.34;104371;1285;62200;-79
2024/04/23 08:49:02;;;;;;;;;;;;;;;19.47;44.22;101201.80;105052;1286;62168;-79
2024/04/23 08:51:28;;;;;;;;;;;;;;;19.47;44.30;101206.64;104321;1285;62149;-80
2024/04/23 08:53:53;;;;;;;;;;;;;;;19.40;44.05;101205.41;104444;1288;62100;-81
2024/04/23 08:56:23;;;;;;;;;;;;;;;19.30;44.04;101211.31;104778;1288;62284;-79
2024/04/23 08:58:49;;;;;;;;;;;;;;;19.13;44.16;101211.05;104365;1285;72444;-79
2024/04/23 09:01:22;;;;;;;;;;;;;;;19.03;44.31;101210.55;104706;1285;62388;-80
2024/04/23 09:03:48;;;;;;;;;;;;;;;18.97;44.39;101191.80;104672;1286;61998;-80
2024/04/23 09:06:13;;;;;;;;;;;;;;;19.00;44.63;101192.52;104597;1285;62861;-80
2024/04/23 09:08:39;;;;;;;;;;;;;;;19.04;44.68;101192.08;104916;1286;62195;-80
2024/04/23 09:11:05;;;;;;;;;;;;;;;19.09;44.62;101180.95;104802;1285;61069;-79
2024/04/23 09:13:30;;;;;;;;;;;;;;;19.13;44.60;101185.21;104963;1291;62136;-79
2024/04/23 09:15:57;;;;;;;;;;;;;;;19.15;44.67;101171.71;105057;1286;62123;-80
2024/04/23 09:18:24;;;;;;;;;;;;;;;19.17;44.86;101163.21;106331;1285;60188;-80
2024/04/23 09:20:49;;;;;;;;;;;;;;;19.20;44.71;101155.89;106623;1288;59781;-80
2024/04/23 09:23:17;;;;;;;;;;;;;;;19.24;44.87;101146.92;105022;1285;62059;-80
2024/04/23 09:25:42;;;;;;;;;;;;;;;19.28;44.76;101127.41;104292;1291;62207;-80
2024/04/23 09:28:09;;;;;;;;;;;;;;;19.32;45.02;101110.63;104342;1285;62131;-80
2024/04/23 09:30:37;;;;;;;;;;;;;;;19.34;44.85;101117.05;103934;1286;62178;-81
2024/04/23 09:33:03;;;;;;;;;;;;;;;19.36;44.77;101123.36;104233;1290;62082;-78
2024/04/23 09:35:29;;;;;;;;;;;;;;;19.36;44.75;101116.61;104232;1288;63017;-79
2024/04/23 09:37:54;;;;;;;;;;;;;;;19.37;44.70;101115.83;104294;1285;62130;-80
2024/04/23 09:40:20;;;;;;;;;;;;;;;19.38;44.72;101110.95;104143;1291;62133;-79
2024/04/23 09:42:52;;;;;;;;;;;;;;;19.38;44.75;101110.75;103849;1285;63386;-80
2024/04/23 09:45:20;;;;;;;;;;;;;;;19.37;44.51;101104.21;104105;1286;62082;-80
2024/04/23 09:47:46;;;;;;;;;;;;;;;19.36;44.59;101105.88;104149;1285;62191;-80
2024/04/23 09:50:11;;;;;;;;;;;;;;;19.38;44.81;101103.30;103812;1291;62248;-78
2024/04/23 09:52:38;;;;;;;;;;;;;;;19.39;44.81;101104.13;103822;1285;62207;-80
2024/04/23 09:55:04;;;;;;;;;;;;;;;19.40;44.87;101104.41;103678;1286;63279;-80
2024/04/23 09:57:30;;;;;;;;;;;;;;;19.41;44.82;101099.17;103495;1286;62126;-79
2024/04/23 09:59:56;;;;;;;;;;;;;;;19.43;44.80;101091.73;103455;1285;62097;-80
2024/04/23 10:02:26;;;;;;;;;;;;;;;19.44;44.81;101085.77;104238;1291;62168;-80
2024/04/23 10:04:53;;;;;;;;;;;;;;;19.45;44.81;101084.66;103852;1286;63445;-81
2024/04/23 10:07:18;;;;;;;;;;;;;;;19.45;44.75;101080.04;104257;1286;62008;-81
2024/04/23 10:09:44;;;;;;;;;;;;;;;19.44;44.87;101075.23;104145;1286;62035;-80
2024/04/23 10:12:11;;;;;;;;;;;;;;;19.46;44.90;101067.30;103923;1286;63569;-80
2024/04/23 10:14:45;;;;;;;;;;;;;;;19.47;44.83;101062.59;103667;1288;62078;-80
2024/04/23 10:17:16;;;;;;;;;;;;;;;19.46;44.88;101063.88;103745;1285;62076;-80
2024/04/23 10:19:41;;;;;;;;;;;;;;;19.44;44.94;101056.69;103890;1290;73346;-79
2024/04/23 10:22:07;;;;;;;;;;;;;;;19.43;44.94;101054.21;104043;1285;63418;-79
2024/04/23 10:24:33;;;;;;;;;;;;;;;19.42;45.11;101053.39;103611;1291;62110;-79
2024/04/23 10:26:58;;;;;;;;;;;;;;;19.42;45.05;101039.48;103678;1286;62235;-80
2024/04/23 10:29:24;;;;;;;;;;;;;;;19.42;44.97;101040.17;104221;1285;60751;-80
2024/04/23 10:31:49;;;;;;;;;;;;;;;19.43;45.02;101043.55;103994;1286;73347;-81
2024/04/23 10:34:15;;;;;;;;;;;;;;;19.44;45.01;101050.08;103938;1291;62380;-80
2024/04/23 10:36:42;;;;;;;;;;;;;;;19.44;45.17;101052.40;103845;1285;62197;-80
2024/04/23 10:39:11;;;;;;;;;;;;;;;19.43;45.19;101046.55;103729;1286;62254;-81
2024/04/23 10:41:40;;;;;;;;;;;;;;;19.43;45.37;101042.98;103918;1291;72547;-83
2024/04/23 10:44:07;;;;;;;;;;;;;;;19.43;45.27;101038.54;103533;1292;75200;-81
2024/04/23 10:46:32;;;;;;;;;;;;;;;19.43;45.35;101043.33;103812;1286;62086;-80
2024/04/23 10:48:59;;;;;;;;;;;;;;;19.43;45.42;101043.86;104144;1286;62184;-80
2024/04/23 10:51:25;;;;;;;;;;;;;;;19.42;45.43;101041.27;104148;1286;62135;-79
2024/04/23 10:53:52;;;;;;;;;;;;;;;19.38;45.45;101046.31;104028;1285;62175;-78
2024/04/23 10:56:22;;;;;;;;;;;;;;;19.36;45.50;101041.60;104103;1288;62193;-79
2024/04/23 10:58:47;;;;;;;;;;;;;;;19.38;45.54;101042.03;104592;1288;62245;-79
2024/04/23 11:01:22;;;;;;;;;;;;;;;19.39;45.62;101040.73;103734;1290;65163;-81
2024/04/23 11:03:54;;;;;;;;;;;;;;;19.41;45.63;101030.42;104161;1287;77921;-81
2024/04/23 11:06:20;;;;;;;;;;;;;;;19.43;45.45;101018.38;104110;1286;62112;-80
2024/04/23 11:08:49;;;;;;;;;;;;;;;19.44;45.47;101011.88;104146;1285;62191;-78
2024/04/23 11:11:20;;;;;;;;;;;;;;;19.45;45.57;101002.36;104281;1286;73850;-79
2024/04/23 11:13:46;;;;;;;;;;;;;;;19.46;45.68;100993.22;103970;1290;76287;-81
2024/04/23 11:16:15;;;;;;;;;;;;;;;19.45;45.72;100983.79;103879;1288;62202;-80
2024/04/23 11:18:41;;;;;;;;;;;;;;;19.45;45.66;100984.34;103982;1288;62857;-79
2024/04/23 11:21:07;;;;;;;;;;;;;;;19.45;45.78;100980.60;104185;1289;73711;-80
2024/04/23 11:23:33;;;;;;;;;;;;;;;19.46;45.55;100971.43;103749;1286;75348;-79
2024/04/23 11:25:59;;;;;;;;;;;;;;;19.46;45.57;100967.54;103724;1285;62111;-79
2024/04/23 11:28:25;;;;;;;;;;;;;;;19.46;45.58;100965.90;103632;1285;62207;-81
2024/04/23 11:30:51;;;;;;;;;;;;;;;19.45;45.45;100964.33;103651;1288;62114;-80
2024/04/23 11:33:17;;;;;;;;;;;;;;;19.42;45.41;100975.27;104162;1285;62060;-80
2024/04/23 11:35:43;;;;;;;;;;;;;;;19.39;45.41;100973.77;104310;1289;62268;-81
2024/04/23 11:38:08;;;;;;;;;;;;;;;19.39;45.57;100977.18;104046;1286;62252;-80
2024/04/23 11:40:34;;;;;;;;;;;;;;;19.38;45.70;100975.13;104072;1289;62199;-80
2024/04/23 11:42:59;;;;;;;;;;;;;;;19.37;45.66;100969.49;104016;1291;62143;-79
2024/04/23 11:45:25;;;;;;;;;;;;;;;19.32;45.61;100961.54;104276;1291;62197;-79
2024/04/23 11:47:54;;;;;;;;;;;;;;;19.32;45.81;100958.21;104584;1291;62219;-79
2024/04/23 11:50:19;;;;;;;;;;;;;;;19.32;45.62;100958.38;104180;1285;62278;-79
2024/04/23 11:52:45;;;;;;;;;;;;;;;19.32;45.69;100955.85;104552;1285;63152;-79
2024/04/23 11:55:10;;;;;;;;;;;;;;;19.33;45.83;100957.38;104519;1285;60414;-78
2024/04/23 11:57:38;;;;;;;;;;;;;;;19.34;45.63;100953.40;104229;1291;62183;-80
2024/04/23 12:00:05;;;;;;;;;;;;;;;19.36;45.63;100948.14;104166;1286;62169;-80
2024/04/23 12:02:30;;;;;;;;;;;;;;;19.36;45.80;100935.95;104294;1285;62960;-80
2024/04/23 12:04:58;;;;;;;;;;;;;;;19.37;45.73;100928.42;106458;1285;60232;-79
2024/04/23 12:07:24;;;;;;;;;;;;;;;19.38;45.65;100915.52;106635;1285;59754;-78
2024/04/23 12:09:50;;;;;;;;;;;;;;;19.38;45.73;100906.05;106633;1285;59737;-78
2024/04/23 12:12:24;;;;;;;;;;;;;;;19.40;45.64;100908.44;104942;1285;62110;-80
2024/04/23 12:14:50;;;;;;;;;;;;;;;19.40;45.68;100908.94;104263;1285;75481;-78
2024/04/23 12:17:15;;;;;;;;;;;;;;;19.42;45.61;100904.72;104728;1285;62191;-78
2024/04/23 12:19:42;;;;;;;;;;;;;;;19.42;45.63;100906.13;104199;1291;63569;-79
2024/04/23 12:22:17;;;;;;;;;;;;;;;19.44;45.48;100903.70;104052;1286;62198;-79
2024/04/23 12:24:42;;;;;;;;;;;;;;;19.45;45.64;100904.05;104278;1289;74857;-79
2024/04/23 12:27:08;;;;;;;;;;;;;;;19.46;45.63;100901.11;104064;1289;62124;-79
2024/04/23 12:29:34;;;;;;;;;;;;;;;19.46;45.57;100900.55;104135;1286;62232;-79